Flight Track Log - Related Links

Times and Time Zones

All times are in EDT time to prevent confusion due to time zone crossing. See the MAS6124 flight status page for this flight to view local times or setup timezone preferences in your user account.

Time Position Orientation Groundspeed Altitude Reporting Facility
EDT Latitude Longitude Course Direction KTS MPH feet Rate Location/Type
Sun 08:24:11 PM 26.6799 51.0289 291° West 484 557 38,000  Level FlightAware ADS-B (OBBI / BAH)
Sun 08:25:06 PM 26.7260 50.8828 290° West 492 566 38,000  Level FlightAware ADS-B (OBBI / BAH)
Sun 08:25:37 PM 26.7493 50.8080 290° West 490 564 38,000  Level FlightAware ADS-B (OBBI / BAH)
Sun 08:26:06 PM 26.7713 50.7371 290° West 491 565 38,000  Level FlightAware ADS-B (OBBI / BAH)
Sun 08:26:37 PM 26.7986 50.6653 297° West 490 564 38,000  Level FlightAware ADS-B (OBBI / BAH)
Sun 08:27:13 PM 26.8387 50.5882 304° West 491 565 38,000  Level FlightAware ADS-B (OBBI / BAH)
Sun 08:27:47 PM 26.8867 50.5167 310° West 490 564 38,000  Level FlightAware ADS-B (OBBI / BAH)
Sun 08:28:17 PM 26.9331 50.4616 317° Northwest 490 564 38,000  Level FlightAware ADS-B (OBBI / BAH)
Sun 08:28:57 PM 26.9981 50.3937 315° West 490 564 38,000  Level FlightAware ADS-B (OBBI / BAH)
Sun 08:29:26 PM 27.0446 50.3399 314° West 490 564 38,000  Level FlightAware ADS-B (OBBI / BAH)
Sun 08:29:56 PM 27.0909 50.2847 313° West 491 565 38,000  Level FlightAware ADS-B (OBBI / BAH)
Sun 08:30:22 PM 27.1262 50.2422 314° West 490 564 38,000  Level FlightAware ADS-B (OBBI / BAH)
Sun 08:31:01 PM 27.1988 50.1693 322° Northwest 489 563 38,000  Level FlightAware ADS-B (OBBI / BAH)
Sun 08:31:37 PM 27.2601 50.1185 324° Northwest 490 564 38,000  Level FlightAware ADS-B (OBBI / BAH)
Sun 08:32:11 PM 27.3264 50.0636 324° Northwest 488 562 38,000  Level FlightAware ADS-B (OBBI / BAH)
Sun 08:32:41 PM 27.3804 50.0187 323° Northwest 487 560 38,000  Level FlightAware ADS-B (OBBI / BAH)
Sun 08:33:12 PM 27.4317 49.9730 322° Northwest 487 560 38,000  Level FlightAware ADS-B (OBBI / BAH)
Sun 08:33:41 PM 27.4856 49.9253 322° Northwest 488 562 38,000  Level FlightAware ADS-B (OBBI / BAH)
Sun 08:34:07 PM 27.5268 49.8889 322° Northwest 488 562 38,000  Level FlightAware ADS-B (OBBI / BAH)
Sun 08:34:41 PM 27.5933 49.8302 322° Northwest 488 562 38,000  Level FlightAware ADS-B (OBBI / BAH)
Sun 08:35:12 PM 27.6435 49.7859 322° Northwest 488 562 38,000  Level FlightAware ADS-B (OBBI / BAH)
Sun 08:35:40 PM 27.6976 49.7382 322° Northwest 487 560 38,000  Level FlightAware ADS-B (OBBI / BAH)
Sun 08:36:12 PM 27.7277 49.7115 322° Northwest 487 560 38,000  Level FlightAware ADS-B (OBBI / BAH)
Sun 08:36:40 PM 27.8031 49.6448 322° Northwest 482 555 38,000  Level FlightAware ADS-B (OBBI / BAH)
Sun 08:37:00 PM 27.8347 49.6169 322° Northwest 481 554 38,000  Level FlightAware ADS-B (OBBI / BAH)
Sun 08:37:36 PM 27.8897 49.5682 322° Northwest 481 554 38,000  Level FlightAware ADS-B (OBBI / BAH)
Sun 08:39:59 PM 28.1502 49.3320 322° Northwest 481 554 38,000  Level FlightAware ADS-B (OBBI / BAH)
Sun 08:40:00 PM 28.1176 49.3438 319° Northwest  Level Estimated
Sun 08:40:24 PM 28.1864 49.2988 321° Northwest 484 557 38,000  Level FlightAware ADS-B (OBBI / BAH)
Sun 08:40:51 PM 28.2311 49.2580 322° Northwest 484 557 38,000 11 Level FlightAware ADS-B (OBBI / BAH)
Sun 08:43:00 PM 28.4348 49.0557 319° Northwest  Level Estimated
Sun 08:44:00 PM 28.5294 48.9614 319° Northwest  Level Estimated
Sun 08:45:00 PM 28.6239 48.8668 319° Northwest  Level Estimated
Sun 08:46:00 PM 28.7184 48.7721 319° Northwest  Level Estimated
Sun 08:47:00 PM 28.8128 48.6773 319° Northwest  Level Estimated
Sun 08:48:00 PM 28.9072 48.5822 319° Northwest  Level Estimated
Sun 08:49:00 PM 29.0015 48.4870 319° Northwest  Level Estimated
Sun 08:50:00 PM 29.0957 48.3917 319° Northwest  Level Estimated
Sun 08:51:00 PM 29.1898 48.2961 318° Northwest  Level Estimated
Sun 08:52:00 PM 29.2839 48.2004 318° Northwest  Level Estimated
Sun 08:53:00 PM 29.3779 48.1044 318° Northwest  Level Estimated
Sun 08:54:00 PM 29.4719 48.0084 318° Northwest  Level Estimated
Sun 08:55:00 PM 29.5658 47.9121 318° Northwest  Level Estimated
Sun 08:56:00 PM 29.6595 47.8156 318° Northwest  Level Estimated
Sun 08:57:00 PM 29.7533 47.7190 318° Northwest  Level Estimated
Sun 08:58:00 PM 29.8470 47.6222 318° Northwest  Level Estimated
Sun 08:59:00 PM 29.9405 47.5252 318° Northwest  Level Estimated
Sun 09:00:00 PM 30.0341 47.4281 318° Northwest  Level Estimated
Sun 09:01:00 PM 30.1275 47.3307 318° Northwest  Level Estimated
Sun 09:02:00 PM 30.2209 47.2332 318° Northwest  Level Estimated
Sun 09:03:00 PM 30.3142 47.1354 318° Northwest  Level Estimated
Sun 09:04:00 PM 30.4074 47.0375 318° Northwest  Level Estimated
Sun 09:05:00 PM 30.5006 46.9394 318° Northwest  Level Estimated
Sun 09:06:00 PM 30.5937 46.8411 318° Northwest  Level Estimated
Sun 09:07:00 PM 30.6867 46.7427 318° Northwest  Level Estimated
Sun 09:08:00 PM 30.7796 46.6440 318° Northwest  Level Estimated
Sun 09:09:00 PM 30.8725 46.5452 318° Northwest  Level Estimated
Sun 09:10:00 PM 30.9653 46.4461 318° Northwest  Level Estimated
Sun 09:11:00 PM 31.0580 46.3469 317° Northwest  Level Estimated
Sun 09:12:00 PM 31.1506 46.2474 317° Northwest  Level Estimated
Sun 09:13:00 PM 31.2432 46.1478 317° Northwest  Level Estimated
Sun 09:14:00 PM 31.3357 46.0480 317° Northwest  Level Estimated
Sun 09:15:00 PM 31.4281 45.9480 317° Northwest  Level Estimated
Sun 09:16:00 PM 31.5204 45.8478 317° Northwest  Level Estimated
Sun 09:17:00 PM 31.6127 45.7473 317° Northwest  Level Estimated
Sun 09:18:00 PM 31.7048 45.6467 317° Northwest  Level Estimated
Sun 09:19:00 PM 31.7969 45.5459 317° Northwest  Level Estimated
Sun 09:20:00 PM 31.8889 45.4449 317° Northwest  Level Estimated
Sun 09:21:00 PM 31.9809 45.3437 317° Northwest  Level Estimated
Sun 09:22:00 PM 32.0727 45.2423 317° Northwest  Level Estimated
Sun 09:23:00 PM 32.1645 45.1406 317° Northwest  Level Estimated
Sun 09:24:00 PM 32.2562 45.0388 317° Northwest  Level Estimated
Sun 09:25:00 PM 32.3478 44.9368 317° Northwest  Level Estimated
Sun 09:26:00 PM 32.4393 44.8345 317° Northwest  Level Estimated
Sun 09:27:00 PM 32.5308 44.7321 317° Northwest  Level Estimated
Sun 09:28:00 PM 32.6221 44.6294 317° Northwest  Level Estimated
Sun 09:29:00 PM 32.7134 44.5266 317° Northwest  Level Estimated
Sun 09:30:00 PM 32.8046 44.4235 316° Northwest  Level Estimated
Sun 09:31:00 PM 32.8957 44.3202 316° Northwest  Level Estimated
Sun 09:32:00 PM 32.9867 44.2167 316° Northwest  Level Estimated
Sun 09:33:00 PM 33.0776 44.1130 316° Northwest  Level Estimated
Sun 09:34:00 PM 33.1685 44.0090 316° Northwest  Level Estimated
Sun 09:35:00 PM 33.2593 43.9049 316° Northwest  Level Estimated
Sun 09:36:00 PM 33.3499 43.8005 316° Northwest  Level Estimated
Sun 09:37:00 PM 33.4405 43.6960 316° Northwest  Level Estimated
Sun 09:38:00 PM 33.5310 43.5912 316° Northwest  Level Estimated
Sun 09:39:00 PM 33.6214 43.4861 316° Northwest  Level Estimated
Sun 09:40:00 PM 33.7118 43.3809 316° Northwest  Level Estimated
Sun 09:41:00 PM 33.8020 43.2755 316° Northwest  Level Estimated
Sun 09:42:00 PM 33.8921 43.1698 316° Northwest  Level Estimated
Sun 09:43:00 PM 33.9822 43.0639 316° Northwest  Level Estimated
Sun 09:44:00 PM 34.0722 42.9577 316° Northwest  Level Estimated
Sun 09:45:00 PM 34.1620 42.8514 316° Northwest  Level Estimated
Sun 09:46:00 PM 34.2518 42.7448 316° Northwest  Level Estimated
Sun 09:47:00 PM 34.3415 42.6380 315° West  Level Estimated
Sun 09:48:00 PM 34.4311 42.5309 315° West  Level Estimated
Sun 09:49:00 PM 34.5206 42.4237 315° West  Level Estimated
Sun 09:50:00 PM 34.6100 42.3162 315° West  Level Estimated
Sun 09:51:00 PM 34.6993 42.2085 315° West  Level Estimated
Sun 09:52:00 PM 34.7885 42.1005 315° West  Level Estimated
Sun 09:53:00 PM 34.8777 41.9923 315° West  Level Estimated
Sun 09:54:00 PM 34.9667 41.8839 315° West  Level Estimated
Sun 09:55:00 PM 35.0556 41.7752 315° West  Level Estimated
Sun 09:56:00 PM 35.1444 41.6663 315° West  Level Estimated
Sun 09:57:00 PM 35.2332 41.5572 315° West  Level Estimated
Sun 09:58:00 PM 35.3218 41.4478 315° West  Level Estimated
Sun 09:59:00 PM 35.4103 41.3382 315° West  Level Estimated
Sun 10:00:00 PM 35.4988 41.2283 315° West  Level Estimated
Sun 10:01:00 PM 35.5871 41.1182 315° West  Level Estimated
Sun 10:02:00 PM 35.6754 41.0078 315° West  Level Estimated
Sun 10:03:00 PM 35.7635 40.8973 315° West  Level Estimated
Sun 10:04:00 PM 35.8515 40.7864 314° West  Level Estimated
Sun 10:05:00 PM 35.9395 40.6753 314° West  Level Estimated
Sun 10:06:00 PM 36.0273 40.5640 314° West  Level Estimated
Sun 10:07:00 PM 36.1150 40.4524 314° West  Level Estimated
Sun 10:08:00 PM 36.2026 40.3406 314° West  Level Estimated
Sun 10:09:00 PM 36.2902 40.2285 314° West  Level Estimated
Sun 10:10:00 PM 36.3776 40.1162 314° West  Level Estimated
Sun 10:11:00 PM 36.4649 40.0036 314° West  Level Estimated
Sun 10:12:00 PM 36.5521 39.8908 314° West  Level Estimated
Sun 10:13:00 PM 36.6392 39.7777 314° West  Level Estimated
Sun 10:14:00 PM 36.7262 39.6643 314° West  Level Estimated
Sun 10:15:00 PM 36.8131 39.5507 314° West  Level Estimated
Sun 10:16:00 PM 36.8998 39.4369 314° West  Level Estimated
Sun 10:17:00 PM 36.9865 39.3228 314° West  Level Estimated
Sun 10:18:00 PM 37.0731 39.2084 314° West  Level Estimated
Sun 10:19:00 PM 37.1595 39.0937 313° West  Level Estimated
Sun 10:20:00 PM 37.2458 38.9788 313° West  Level Estimated
Sun 10:21:00 PM 37.3321 38.8637 313° West  Level Estimated
Sun 10:22:00 PM 37.4182 38.7482 313° West  Level Estimated
Sun 10:23:00 PM 37.5042 38.6325 313° West  Level Estimated
Sun 10:24:00 PM 37.5901 38.5166 313° West  Level Estimated
Sun 10:25:00 PM 37.6758 38.4003 313° West  Level Estimated
Sun 10:26:00 PM 37.7615 38.2838 313° West  Level Estimated
Sun 10:27:00 PM 37.8470 38.1671 313° West  Level Estimated
Sun 10:28:00 PM 37.9325 38.0500 313° West  Level Estimated
Sun 10:29:00 PM 38.0178 37.9327 313° West  Level Estimated
Sun 10:30:00 PM 38.1030 37.8151 313° West  Level Estimated
Sun 10:31:00 PM 38.1880 37.6973 313° West  Level Estimated
Sun 10:32:00 PM 38.2730 37.5791 313° West  Level Estimated
Sun 10:33:00 PM 38.3578 37.4607 312° West  Level Estimated
Sun 10:34:00 PM 38.4426 37.3420 312° West  Level Estimated
Sun 10:35:00 PM 38.5272 37.2230 312° West  Level Estimated
Sun 10:36:00 PM 38.6116 37.1038 312° West  Level Estimated
Sun 10:37:00 PM 38.6960 36.9843 312° West  Level Estimated
Sun 10:38:00 PM 38.7803 36.8645 312° West  Level Estimated
Sun 10:39:00 PM 38.8644 36.7444 312° West  Level Estimated
Sun 10:40:00 PM 38.9484 36.6240 312° West  Level Estimated
Sun 10:41:00 PM 39.0322 36.5033 312° West  Level Estimated
Sun 10:42:00 PM 39.1160 36.3824 312° West  Level Estimated
Sun 10:43:00 PM 39.1996 36.2611 312° West  Level Estimated
Sun 10:44:00 PM 39.2831 36.1396 312° West  Level Estimated
Sun 10:45:00 PM 39.3664 36.0178 312° West  Level Estimated
Sun 10:46:00 PM 39.4497 35.8957 311° West  Level Estimated
Sun 10:47:00 PM 39.5328 35.7733 311° West  Level Estimated
Sun 10:48:00 PM 39.6158 35.6506 311° West  Level Estimated
Sun 10:49:00 PM 39.6986 35.5276 311° West  Level Estimated
Sun 10:50:00 PM 39.7813 35.4043 311° West  Level Estimated
Sun 10:51:00 PM 39.8639 35.2807 311° West  Level Estimated
Sun 10:52:00 PM 39.9464 35.1568 311° West  Level Estimated
Sun 10:53:00 PM 40.0287 35.0327 311° West  Level Estimated
Sun 10:54:00 PM 40.1109 34.9082 311° West  Level Estimated
Sun 10:55:00 PM 40.1930 34.7834 311° West  Level Estimated
Sun 10:56:00 PM 40.2749 34.6583 311° West  Level Estimated
Sun 10:57:00 PM 40.3567 34.5329 311° West  Level Estimated
Sun 10:58:00 PM 40.4384 34.4073 311° West  Level Estimated
Sun 10:59:00 PM 40.5199 34.2813 310° West  Level Estimated
Sun 11:00:00 PM 40.6012 34.1550 310° West  Level Estimated
Sun 11:01:00 PM 40.6825 34.0284 310° West  Level Estimated
Sun 11:02:00 PM 40.7636 33.9014 310° West  Level Estimated
Sun 11:03:00 PM 40.8446 33.7742 310° West  Level Estimated
Sun 11:04:00 PM 40.9254 33.6467 310° West  Level Estimated
Sun 11:05:00 PM 41.0061 33.5188 310° West  Level Estimated
Sun 11:06:00 PM 41.0866 33.3907 310° West  Level Estimated
Sun 11:07:00 PM 41.1670 33.2622 310° West  Level Estimated
Sun 11:08:00 PM 41.2473 33.1334 310° West  Level Estimated
Sun 11:09:00 PM 41.3274 33.0043 310° West  Level Estimated
Sun 11:10:00 PM 41.4074 32.8749 310° West  Level Estimated
Sun 11:11:00 PM 41.4872 32.7451 309° West  Level Estimated
Sun 11:12:00 PM 41.5669 32.6151 309° West  Level Estimated
Sun 11:13:00 PM 41.6464 32.4847 309° West  Level Estimated
Sun 11:14:00 PM 41.7258 32.3540 309° West  Level Estimated
Sun 11:15:00 PM 41.8050 32.2229 309° West  Level Estimated
Sun 11:16:00 PM 41.8841 32.0916 309° West  Level Estimated
Sun 11:17:00 PM 41.9630 31.9599 309° West  Level Estimated
Sun 11:18:00 PM 42.0418 31.8279 309° West  Level Estimated
Sun 11:19:00 PM 42.1204 31.6956 309° West  Level Estimated
Sun 11:20:00 PM 42.1989 31.5629 309° West  Level Estimated
Sun 11:21:00 PM 42.2773 31.4299 309° West  Level Estimated
Sun 11:22:00 PM 42.3554 31.2966 308° West  Level Estimated
Sun 11:23:00 PM 42.4334 31.1629 308° West  Level Estimated
Sun 11:24:00 PM 42.5113 31.0289 308° West  Level Estimated
Sun 11:25:00 PM 42.5890 30.8946 308° West  Level Estimated
Sun 11:26:00 PM 42.6666 30.7600 308° West  Level Estimated
Sun 11:27:00 PM 42.7440 30.6250 308° West  Level Estimated
Sun 11:28:00 PM 42.8212 30.4897 308° West  Level Estimated
Sun 11:29:00 PM 42.8983 30.3540 308° West  Level Estimated
Sun 11:30:00 PM 42.9752 30.2180 308° West  Level Estimated
Sun 11:31:00 PM 43.0519 30.0816 308° West  Level Estimated
Sun 11:32:00 PM 43.1285 29.9449 308° West  Level Estimated
Sun 11:33:00 PM 43.2049 29.8079 307° West  Level Estimated
Sun 11:34:00 PM 43.2812 29.6705 307° West  Level Estimated
Sun 11:35:00 PM 43.3573 29.5328 307° West  Level Estimated
Sun 11:36:00 PM 43.4332 29.3948 307° West  Level Estimated
Sun 11:37:00 PM 43.5090 29.2563 307° West  Level Estimated
Sun 11:38:00 PM 43.5846 29.1176 307° West  Level Estimated
Sun 11:39:00 PM 43.6600 28.9785 307° West  Level Estimated
Sun 11:40:00 PM 43.7353 28.8390 307° West  Level Estimated
Sun 11:41:00 PM 43.8104 28.6992 307° West  Level Estimated
Sun 11:42:00 PM 43.8853 28.5591 307° West  Level Estimated
Sun 11:43:00 PM 43.9600 28.4186 306° West  Level Estimated
Sun 11:44:00 PM 44.0346 28.2777 306° West  Level Estimated
Sun 11:45:00 PM 44.1090 28.1365 306° West  Level Estimated
Sun 11:46:00 PM 44.1832 27.9949 306° West  Level Estimated
Sun 11:47:00 PM 44.2573 27.8530 306° West  Level Estimated
Sun 11:48:00 PM 44.3312 27.7107 306° West  Level Estimated
Sun 11:49:00 PM 44.4049 27.5680 306° West  Level Estimated
Sun 11:50:00 PM 44.4784 27.4250 306° West  Level Estimated
Sun 11:50:52 PM 44.4105 28.2167 313° West 448 516 40,000  Level FlightAware ADS-B (LBBG / BOJ)
Sun 11:51:22 PM 44.4526 28.1516 313° West 447 514 40,000  Level FlightAware ADS-B (LBBG / BOJ)
Sun 11:51:52 PM 44.4942 28.0872 313° West 447 514 40,000  Level FlightAware ADS-B (LBBG / BOJ)
Sun 11:52:22 PM 44.5327 28.0276 313° West 447 514 40,000  Level FlightAware ADS-B (LBBG / BOJ)
Sun 11:52:52 PM 44.5759 27.9605 313° West 448 516 40,000  Level FlightAware ADS-B (LBBG / BOJ)
Sun 11:52:54 PM 44.5776 27.9579 313° West 448 516 40,000  Level FlightAware ADS-B (LBBG / BOJ)
Sun 11:54:28 PM 44.7090 27.7527 313° West 448 516 40,000  Level FlightAware ADS-B (LBBG / BOJ)
Sun 11:54:57 PM 44.7508 27.6871 312° West 449 517 40,000  Level FlightAware ADS-B (LBBG / BOJ)
Sun 11:56:14 PM 44.8540 27.5248 312° West 449 517 40,000  Level FlightAware ADS-B (LBBG / BOJ)
Mon 12:02:17 AM 45.3517 26.7274 311° West 452 520 40,000  Level FlightAware ADS-B
Mon 12:02:58 AM 45.4068 26.6379 311° West 450 518 40,000  Level FlightAware ADS-B
Mon 12:03:34 AM 45.4612 26.5489 311° West 450 518 40,000  Level FlightAware ADS-B
Mon 12:04:14 AM 45.5156 26.4599 311° West 452 520 40,000  Level FlightAware ADS-B
Mon 12:06:08 AM 45.6705 26.2046 311° West 450 518 40,000  Level FlightAware ADS-B (LRCL / CLJ)
Mon 12:08:09 AM 45.8344 25.9320 311° West 449 517 40,000  Level FlightAware ADS-B (LRCL / CLJ)
Mon 12:08:45 AM 45.8829 25.8506 311° West 450 518 40,000  Level FlightAware ADS-B (LRCL / CLJ)
Mon 12:09:19 AM 45.9285 25.7741 311° West 450 518 40,000  Level FlightAware ADS-B (LRCL / CLJ)
Mon 12:09:56 AM 45.9785 25.6898 310° West 448 516 40,000  Level FlightAware ADS-B (LRCL / CLJ)
Mon 12:10:28 AM 46.0187 25.6220 310° West 446 513 40,000  Level FlightAware ADS-B (LRCL / CLJ)
Mon 12:11:29 AM 46.1019 25.4809 310° West 451 519 40,000  Level FlightAware ADS-B (LRCL / CLJ)
Mon 12:12:49 AM 46.2104 25.2960 310° West 452 520 40,000  Level FlightAware ADS-B (LRCL / CLJ)
Mon 12:13:29 AM 46.2657 25.2011 310° West 454 522 40,000  Level FlightAware ADS-B (LRCL / CLJ)
Mon 12:14:40 AM 46.3607 25.0374 310° West 451 519 40,000  Level FlightAware ADS-B (LRCL / CLJ)
Mon 12:15:39 AM 46.4362 24.9065 310° West 452 520 40,000  Level FlightAware ADS-B (LRCL / CLJ)
Mon 12:16:58 AM 46.5440 24.7188 310° West 456 525 40,000  Level FlightAware ADS-B (LRCL / CLJ)
Mon 12:17:30 AM 46.5844 24.6483 310° West 457 526 40,000  Level FlightAware ADS-B (LRCL / CLJ)
Mon 12:18:07 AM 46.6365 24.5567 310° West 458 527 40,000  Level FlightAware ADS-B (LRCL / CLJ)
Mon 12:18:40 AM 46.6824 24.4760 310° West 457 526 40,000  Level FlightAware ADS-B (LRCL / CLJ)
Mon 12:19:10 AM 46.7206 24.4084 310° West 455 524 40,000  Level FlightAware ADS-B (LRCL / CLJ)
Mon 12:19:50 AM 46.7746 24.3131 309° West 448 516 40,000  Level FlightAware ADS-B (LRCL / CLJ)
Mon 12:20:30 AM 46.8267 24.2206 309° West 446 513 40,000  Level FlightAware ADS-B (LRCL / CLJ)
Mon 12:21:00 AM 46.8667 24.1492 309° West 444 511 40,000  Level FlightAware ADS-B (LRCL / CLJ)
Mon 12:21:39 AM 46.9165 24.0603 309° West 444 511 40,000  Level FlightAware ADS-B (LRCL / CLJ)
Mon 12:22:10 AM 46.9574 23.9869 309° West 445 512 40,000  Level FlightAware ADS-B (LRCL / CLJ)
Mon 12:22:49 AM 47.0070 23.8979 309° West 446 513 40,000  Level FlightAware ADS-B (LRCL / CLJ)
Mon 12:23:20 AM 47.0479 23.8241 309° West 445 512 40,000  Level FlightAware ADS-B (LRCL / CLJ)
Mon 12:23:50 AM 47.0861 23.7549 309° West 445 512 40,000  Level FlightAware ADS-B (LRCL / CLJ)
Mon 12:24:21 AM 47.1249 23.6847 309° West 446 513 40,000  Level FlightAware ADS-B (LRCL / CLJ)
Mon 12:25:01 AM 47.1774 23.5892 309° West 447 514 40,000  Level FlightAware ADS-B (LRCL / CLJ)
Mon 12:25:31 AM 47.2162 23.5185 309° West 446 513 40,000  Level FlightAware ADS-B (LRCL / CLJ)
Mon 12:26:01 AM 47.2511 23.4547 309° West 447 514 40,000  Level FlightAware ADS-B (LRCL / CLJ)
Mon 12:26:40 AM 47.3067 23.3526 309° West 449 517 40,000  Level FlightAware ADS-B (LRCL / CLJ)
Mon 12:27:11 AM 47.3457 23.2810 309° West 450 518 40,000  Level FlightAware ADS-B (LRCL / CLJ)
Mon 12:27:41 AM 47.3843 23.2096 309° West 450 518 40,000  Level FlightAware ADS-B (LRCL / CLJ)
Mon 12:28:11 AM 47.4240 23.1365 309° West 450 518 40,000  Level FlightAware ADS-B (LRCL / CLJ)
Mon 12:28:50 AM 47.4749 23.0418 308° West 451 519 40,000  Level FlightAware ADS-B (LRCL / CLJ)
Mon 12:29:20 AM 47.5137 22.9698 308° West 449 517 40,000  Level FlightAware ADS-B (LRCL / CLJ)
Mon 12:30:01 AM 47.5654 22.8733 308° West 449 517 40,000  Level FlightAware ADS-B (LRCL / CLJ)
Mon 12:30:31 AM 47.6055 22.7983 308° West 449 517 40,000  Level FlightAware ADS-B (LRCL / CLJ)
Mon 12:31:02 AM 47.6450 22.7242 308° West 449 517 40,000  Level FlightAware ADS-B (LRCL / CLJ)
Mon 12:31:32 AM 47.6817 22.6552 308° West 450 518 40,000  Level FlightAware ADS-B (LRCL / CLJ)
Mon 12:32:02 AM 47.7211 22.5807 308° West 449 517 40,000  Level FlightAware ADS-B (LRCL / CLJ)
Mon 12:32:32 AM 47.7591 22.5089 308° West 447 514 40,000  Level FlightAware ADS-B (LRCL / CLJ)
Mon 12:33:02 AM 47.7964 22.4320 303° West 447 514 40,000  Level FlightAware ADS-B (LRCL / CLJ)
Mon 12:33:40 AM 47.8335 22.3342 299° West 448 516 40,000  Level FlightAware ADS-B (LRCL / CLJ)
Mon 12:34:12 AM 47.8659 22.2456 299° West 448 516 40,000  Level FlightAware ADS-B (LRCL / CLJ)
Mon 12:34:52 AM 47.9047 22.1388 298° West 449 517 40,000  Level FlightAware ADS-B (LRCL / CLJ)
Mon 12:35:22 AM 47.9348 22.0556 298° West 449 517 40,000  Level FlightAware ADS-B (LRCL / CLJ)
Mon 12:36:02 AM 47.9727 21.9504 298° West 447 514 40,000  Level FlightAware ADS-B (LRCL / CLJ)
Mon 12:36:33 AM 48.0020 21.8687 298° West 446 513 40,000  Level FlightAware ADS-B (LRCL / CLJ)
Mon 12:37:03 AM 48.0330 21.7822 298° West 445 512 40,000  Level FlightAware ADS-B (LRCL / CLJ)
Mon 12:37:52 AM 48.0270 21.7989 298° West 446 513 40,000  Level FlightAware ADS-B
Mon 12:38:41 AM 48.1291 21.5117 297° West 445 512 40,000  Level FlightAware ADS-B
Mon 12:39:11 AM 48.1584 21.4286 297° West 445 512 40,000  Level FlightAware ADS-B
Mon 12:39:42 AM 48.1885 21.3432 297° West 446 513 40,000  Level FlightAware ADS-B
Mon 12:40:12 AM 48.2174 21.2608 297° West 447 514 40,000  Level FlightAware ADS-B
Mon 12:40:57 AM 48.2598 21.1396 297° West 448 516 40,000  Level FlightAware ADS-B
Mon 12:41:16 AM 48.2773 21.0893 298° West 450 518 40,000  Level FlightAware ADS-B
Mon 12:41:47 AM 48.3072 21.0030 298° West 451 519 40,000  Level FlightAware ADS-B
Mon 12:42:27 AM 48.3469 20.8882 297° West 449 517 40,000  Level FlightAware ADS-B
Mon 12:43:11 AM 48.3898 20.7639 297° West 447 514 40,000  Level FlightAware ADS-B
Mon 12:43:42 AM 48.4189 20.6789 297° West 447 514 40,000  Level FlightAware ADS-B
Mon 12:44:51 AM 48.4708 20.5269 297° West 453 521 40,000  Level FlightAware ADS-B
Mon 12:45:27 AM 48.5195 20.3836 297° West 454 522 40,000  Level FlightAware ADS-B
Mon 12:46:08 AM 48.5555 20.2770 297° West 451 519 40,000  Level FlightAware ADS-B
Mon 12:46:42 AM 48.5893 20.1764 297° West 450 518 40,000  Level FlightAware ADS-B
Mon 12:47:27 AM 48.6326 20.0476 297° West 448 516 40,000  Level FlightAware ADS-B
Mon 12:47:57 AM 48.6595 19.9671 297° West 445 512 40,000  Level FlightAware ADS-B
Mon 12:48:06 AM 48.6657 19.9484 297° West 445 512 40,000  Level FlightAware ADS-B
Mon 12:48:42 AM 48.6967 19.8383 291° West 445 512 40,000  Level FlightAware ADS-B
Mon 12:49:12 AM 48.7189 19.7513 291° West 446 513 40,000  Level FlightAware ADS-B
Mon 12:49:42 AM 48.7414 19.6621 291° West 447 514 40,000  Level FlightAware ADS-B
Mon 12:50:12 AM 48.7635 19.5743 290° West 447 514 40,000  Level FlightAware ADS-B
Mon 12:50:52 AM 48.7905 19.4659 291° West 452 520 40,000  Level FlightAware ADS-B
Mon 12:51:57 AM 48.8402 19.2663 291° West 453 521 40,000  Level FlightAware ADS-B
Mon 12:52:30 AM 48.8615 19.1799 291° West 451 519 40,000  Level FlightAware ADS-B
Mon 12:53:02 AM 48.8826 19.0942 290° West 450 518 40,000  Level FlightAware ADS-B
Mon 12:53:42 AM 48.9118 18.9751 290° West 452 520 40,000  Level FlightAware ADS-B
Mon 12:54:13 AM 48.9388 18.8640 290° West 453 521 40,000  Level FlightAware ADS-B
Mon 12:54:48 AM 48.9621 18.7680 290° West 455 524 40,000  Level FlightAware ADS-B
Mon 12:55:19 AM 48.9847 18.6746 290° West 455 524 40,000  Level FlightAware ADS-B (LHBP / BUD)
Mon 12:55:58 AM 49.0144 18.5505 290° West 455 524 40,000  Level FlightAware ADS-B
Mon 12:56:33 AM 49.0368 18.4568 290° West 455 524 40,000  Level FlightAware ADS-B
Mon 12:57:11 AM 49.0652 18.3378 290° West 456 525 40,000  Level FlightAware ADS-B
Mon 12:57:41 AM 49.0849 18.2546 290° West 457 526 40,000  Level FlightAware ADS-B
Mon 12:58:12 AM 49.1113 18.1423 290° West 456 525 40,000  Level FlightAware ADS-B
Mon 12:58:42 AM 49.1316 18.0560 290° West 456 525 40,000  Level FlightAware ADS-B
Mon 12:59:12 AM 49.1526 17.9658 290° West 456 525 40,000  Level FlightAware ADS-B
Mon 12:59:43 AM 49.1725 17.8809 290° West 457 526 40,000  Level FlightAware ADS-B
Mon 01:00:19 AM 49.1981 17.7697 289° West 457 526 40,000  Level FlightAware ADS-B
Mon 01:00:56 AM 49.2259 17.6492 289° West 455 524 40,000  Level FlightAware ADS-B
Mon 01:01:28 AM 49.2484 17.5516 289° West 457 526 40,000  Level FlightAware ADS-B
Mon 01:02:11 AM 49.2789 17.4174 289° West 457 526 40,000  Level FlightAware ADS-B
Mon 01:02:42 AM 49.2989 17.3294 289° West 455 524 40,000  Level FlightAware ADS-B
Mon 01:03:12 AM 49.3205 17.2336 288° West 453 521 40,000  Level FlightAware ADS-B
Mon 01:03:43 AM 49.3418 17.1387 288° West 453 521 40,000  Level FlightAware ADS-B
Mon 01:04:20 AM 49.3646 17.0366 289° West 459 528 40,000  Level FlightAware ADS-B
Mon 01:04:55 AM 49.3916 16.9153 288° West 458 527 40,000  Level FlightAware ADS-B
Mon 01:05:26 AM 49.4124 16.8214 288° West 460 529 40,000  Level FlightAware ADS-B
Mon 01:05:56 AM 49.4331 16.7276 288° West 462 532 40,000  Level FlightAware ADS-B
Mon 01:06:27 AM 49.4539 16.6326 288° West 465 535 40,000  Level FlightAware ADS-B
Mon 01:06:57 AM 49.4749 16.5368 288° West 466 536 40,000  Level FlightAware ADS-B
Mon 01:07:41 AM 49.5043 16.4012 288° West 465 535 40,000  Level FlightAware ADS-B
Mon 01:08:11 AM 49.5254 16.3037 288° West 465 535 40,000  Level FlightAware ADS-B
Mon 01:08:42 AM 49.5457 16.2093 288° West 466 536 40,000  Level FlightAware ADS-B
Mon 01:09:12 AM 49.5661 16.1142 288° West 467 537 40,000  Level FlightAware ADS-B
Mon 01:09:57 AM 49.5961 15.9731 288° West 467 537 40,000  Level FlightAware ADS-B
Mon 01:10:27 AM 49.6165 15.8762 288° West 469 540 40,000  Level FlightAware ADS-B
Mon 01:10:57 AM 49.6370 15.7791 287° West 466 536 40,000  Level FlightAware ADS-B
Mon 01:11:03 AM 49.6311 15.8070 288° West 467 537 40,000  Level FlightAware ADS-B (EDDM / MUC)
Mon 01:11:41 AM 49.6657 15.6415 287° West 460 529 40,000  Level FlightAware ADS-B
Mon 01:12:26 AM 49.6932 15.5092 287° West 451 519 40,000  Level FlightAware ADS-B
Mon 01:12:57 AM 49.7139 15.4090 287° West 452 520 40,000  Level FlightAware ADS-B
Mon 01:13:41 AM 49.7388 15.2877 288° West 453 521 40,000  Level FlightAware ADS-B (ETSE)
Mon 01:14:11 AM 49.7570 15.1985 288° West 452 520 40,000  Level FlightAware ADS-B (ETSE)
Mon 01:14:41 AM 49.7751 15.1100 288° West 453 521 40,000  Level FlightAware ADS-B (ETSE)
Mon 01:15:13 AM 49.7998 14.9880 287° West 454 522 40,000  Level FlightAware ADS-B
Mon 01:15:43 AM 49.8161 14.9070 287° West 455 524 40,000  Level FlightAware ADS-B (ETSE)
Mon 01:16:13 AM 49.8349 14.8128 287° West 455 524 40,000  Level FlightAware ADS-B (ETSE)
Mon 01:16:55 AM 49.8622 14.6760 287° West 456 525 40,000  Level FlightAware ADS-B
Mon 01:18:16 AM 49.9018 14.4754 287° West 460 529 40,000  Level FlightAware ADS-B (ETSE)
Mon 01:19:05 AM 49.9413 14.2733 287° West 460 529 40,000  Level FlightAware ADS-B (ETSE)
Mon 01:19:36 AM 49.9586 14.1842 287° West 462 532 40,000  Level FlightAware ADS-B (ETSE)
Mon 01:20:09 AM 49.9730 14.1093 287° West 464 534 40,000  Level FlightAware ADS-B (ETSE)
Mon 01:22:19 AM 50.0596 13.6556 286° West 465 535 40,000  Level FlightAware ADS-B
Mon 01:22:47 AM 50.0788 13.5659 292° West 466 536 40,000  Level FlightAware ADS-B
Mon 01:23:17 AM 50.1066 13.4767 299° West 469 540 40,000  Level FlightAware ADS-B
Mon 01:23:47 AM 50.1397 13.3867 300° West 469 540 40,000  Level FlightAware ADS-B
Mon 01:24:17 AM 50.1709 13.3013 300° West 468 539 40,000  Level FlightAware ADS-B (ETSE)
Mon 01:24:48 AM 50.2003 13.2207 300° West 467 537 40,000  Level FlightAware ADS-B (ETSE)
Mon 01:25:19 AM 50.2345 13.1267 300° West 466 536 40,000  Level FlightAware ADS-B
Mon 01:25:51 AM 50.2694 13.0304 299° West 466 536 40,000  Level FlightAware ADS-B (ETSE)
Mon 01:26:21 AM 50.3024 12.9391 299° West 467 537 40,000  Level FlightAware ADS-B
Mon 01:26:51 AM 50.3337 12.8521 299° West 468 539 40,000  Level FlightAware ADS-B
Mon 01:27:22 AM 50.3596 12.7801 299° West 471 542 40,000  Level FlightAware ADS-B (ETSE)
Mon 01:27:57 AM 50.4032 12.6581 299° West 471 542 40,000  Level FlightAware ADS-B (ETSE)
Mon 01:28:28 AM 50.4375 12.5617 299° West 472 543 40,000  Level FlightAware ADS-B
Mon 01:29:36 AM 50.5088 12.3605 299° West 473 544 40,000  Level FlightAware ADS-B
Mon 01:30:07 AM 50.5352 12.2856 299° West 472 543 40,000  Level FlightAware ADS-B (ETSE)
Mon 01:30:38 AM 50.5600 12.2149 299° West 471 542 40,000  Level FlightAware ADS-B (ETSE)
Mon 01:31:09 AM 50.6060 12.0834 299° West 470 541 40,000  Level FlightAware ADS-B (ETSE)
Mon 01:31:39 AM 50.6372 11.9935 299° West 472 543 40,000  Level FlightAware ADS-B (ETSE)
Mon 01:32:12 AM 50.6523 11.9502 299° West 472 543 40,000  Level FlightAware ADS-B (EDDM / MUC)
Mon 01:32:43 AM 50.6938 11.8303 299° West 475 547 40,000  Level FlightAware ADS-B (ETSE)
Mon 01:33:41 AM 50.7652 11.6228 298° West 478 550 40,000  Level FlightAware ADS-B
Mon 01:34:37 AM 50.8239 11.4508 298° West 480 552 40,000  Level FlightAware ADS-B
Mon 01:35:07 AM 50.8331 11.4236 298° West 481 554 40,000  Level FlightAware ADS-B
Mon 01:35:49 AM 50.8995 11.2275 298° West 484 557 40,000  Level FlightAware ADS-B
Mon 01:36:25 AM 50.9376 11.1142 298° West 482 555 40,000  Level FlightAware ADS-B
Mon 01:37:17 AM 50.9909 10.9550 298° West 478 550 40,000  Level FlightAware ADS-B (ETSE)
Mon 01:40:33 AM 51.1963 10.3315 297° West 489 563 40,000  Level FlightAware ADS-B
Mon 01:41:14 AM 51.2102 10.2888 297° West 489 563 40,000  Level FlightAware ADS-B
Mon 01:46:11 AM 51.5629 9.1779 297° West 486 559 40,000  Level FlightAware ADS-B
Mon 01:46:41 AM 51.5938 9.0780 296° West 486 559 40,000  Level FlightAware ADS-B
Mon 01:47:13 AM 51.6252 8.9762 296° West 485 558 40,000  Level FlightAware ADS-B
Mon 01:47:43 AM 51.6552 8.8786 296° West 486 559 40,000  Level FlightAware ADS-B
Mon 01:48:22 AM 51.6937 8.7527 296° West 489 563 40,000  Level FlightAware ADS-B
Mon 01:48:53 AM 51.7247 8.6509 296° West 490 564 40,000  Level FlightAware ADS-B
Mon 01:49:23 AM 51.7546 8.5520 296° West 491 565 40,000 -957 Level FlightAware ADS-B
Mon 01:50:02 AM 51.7929 8.4248 296° West 492 566 38,900 -2,087 Descending FlightAware ADS-B
Mon 01:50:32 AM 51.8223 8.3270 296° West 494 568 37,600 -1,869 Descending FlightAware ADS-B
Mon 01:51:03 AM 51.8537 8.2216 296° West 496 571 37,000 -590 Descending FlightAware ADS-B
Mon 01:51:33 AM 51.8817 8.1281 296° West 497 572 37,000  Level FlightAware ADS-B
Mon 01:51:53 AM 51.9035 8.0547 296° West 496 571 37,000 -290 Level FlightAware ADS-B
Mon 01:52:35 AM 51.9217 7.9932 295° West 494 568 36,700 -1,733 Descending FlightAware ADS-B
Mon 01:53:23 AM 51.9693 7.8318 296° West 488 562 34,400 -2,000 Descending FlightAware ADS-B
Mon 01:54:05 AM 52.0089 7.6969 295° West 463 533 33,700 -1,563 Descending FlightAware ADS-B
Mon 01:54:59 AM 52.0575 7.5293 294° West 446 513 31,900 -3,429 Descending FlightAware ADS-B
Mon 01:55:43 AM 52.1185 7.3179 295° West 473 544 28,100 -3,181 Descending FlightAware ADS-B
Mon 01:56:22 AM 52.1326 7.2689 295° West 463 533 27,500 -1,500 Descending FlightAware ADS-B
Mon 01:56:39 AM 52.1485 7.2133 292° West 452 520 26,700 -1,915 Descending FlightAware ADS-B
Mon 01:57:09 AM 52.1702 7.1222 291° West 450 518 26,000 -2,514 Descending FlightAware ADS-B
Mon 01:57:53 AM 52.2171 6.9161 290° West 421 484 23,600 -2,258 Descending FlightAware ADS-B
Mon 01:58:42 AM 52.2346 6.8385 290° West 420 483 22,500 -1,624 Descending FlightAware ADS-B
Mon 01:59:18 AM 52.2581 6.7338 289° West 408 470 21,300 -2,149 Descending FlightAware ADS-B
Mon 01:59:49 AM 52.2780 6.6443 289° West 403 464 20,100 -2,656 Descending FlightAware ADS-B
Mon 02:00:19 AM 52.2976 6.5565 289° West 394 453 18,600 -2,906 Descending FlightAware ADS-B
Mon 02:00:53 AM 52.3180 6.4640 290° West 382 440 17,000 -2,780 Descending FlightAware ADS-B
Mon 02:01:00 AM 52.3218 6.4467 290° West 382 440 16,700 -2,591 Descending FlightAware ADS-B
Mon 02:01:37 AM 52.3435 6.3483 289° West 360 414 15,100 -3,808 Descending FlightAware ADS-B
Mon 02:01:52 AM 52.3639 6.2553 290° West 360 414 13,400 -4,114 Descending FlightAware ADS-B
Mon 02:02:12 AM 52.3762 6.1989 290° West 358 412 12,700 -1,500 Descending FlightAware ADS-B
Mon 02:02:48 AM 52.3737 6.2100 290° West 360 414 12,000 -1,385 Descending FlightAware ADS-B
Mon 02:03:30 AM 52.4062 6.0605 290° West 349 402 10,900 -1,500 Descending FlightAware ADS-B
Mon 02:04:00 AM 52.4218 5.9885 289° West 339 390 10,200 -957 Descending FlightAware ADS-B
Mon 02:04:39 AM 52.4426 5.8922 288° West 327 376 9,800 -556 Descending FlightAware ADS-B
Mon 02:04:54 AM 52.4497 5.8586 288° West 316 364 9,700 -600 Descending FlightAware ADS-B
Mon 02:05:09 AM 52.4567 5.8263 289° West 306 352 9,500 -560 Descending FlightAware ADS-B
Mon 02:06:09 AM 52.4831 5.7025 288° West 271 312 9,000 -480 Descending FlightAware ADS-B
Mon 02:06:24 AM 52.4891 5.6741 288° West 262 302 8,900 -500 Descending FlightAware ADS-B
Mon 02:06:45 AM 52.4971 5.6365 289° West 254 292 8,700 -500 Descending FlightAware ADS-B
Mon 02:07:00 AM 52.5031 5.6084 289° West 246 283 8,600 -400 Descending FlightAware ADS-B
Mon 02:07:15 AM 52.5084 5.5830 287° West 240 276 8,500 -814 Descending FlightAware ADS-B
Mon 02:07:59 AM 52.5239 5.5080 302° West 243 280 7,800 -915 Descending FlightAware ADS-B
Mon 02:08:14 AM 52.5331 5.4831 300° West 234 269 7,600 -1,000 Descending FlightAware ADS-B
Mon 02:08:59 AM 52.5568 5.4138 290° West 230 265 6,800 -1,108 Descending FlightAware ADS-B
Mon 02:09:19 AM 52.5647 5.3815 291° West 232 267 6,400 -960 Descending FlightAware ADS-B
Mon 02:09:49 AM 52.5774 5.3313 291° West 227 261 6,000 -933 Descending FlightAware ADS-B
Mon 02:10:04 AM 52.5835 5.3077 291° West 226 260 5,700 -1,200 Descending FlightAware ADS-B
Mon 02:10:19 AM 52.5897 5.2837 291° West 226 260 5,400 -1,200 Descending FlightAware ADS-B
Mon 02:10:34 AM 52.5960 5.2594 291° West 226 260 5,100 -1,000 Descending FlightAware ADS-B
Mon 02:10:49 AM 52.6022 5.2358 292° West 226 260 4,900 -1,116 Descending FlightAware ADS-B
Mon 02:11:17 AM 52.6138 5.1904 291° West 228 262 4,300 -915 Descending FlightAware ADS-B
Mon 02:11:48 AM 52.6257 5.1410 287° West 224 258 4,000 -400 Descending FlightAware ADS-B
Mon 02:12:02 AM 52.6272 5.1185 270° West 222 255 4,000  Level FlightAware ADS-B
Mon 02:12:53 AM 52.6289 5.0324 270° West 209 241 4,000 -369 Level FlightAware ADS-B
Mon 02:14:12 AM 52.6317 4.9114 270° West 200 230 3,200 -516 Descending FlightAware ADS-B
Mon 02:15:01 AM 52.6171 4.8428 270° West 209 241 2,900 -214 Descending FlightAware UK
Mon 02:15:08 AM 52.6131 4.8349 240° Southwest 197 227 3,000 240 Climbing FlightAware ADS-B
Mon 02:15:26 AM 52.6045 4.8119 234° Southwest 196 226 3,000 -176 Level FlightAware ADS-B
Mon 02:15:42 AM 52.5944 4.7956 223° Southwest 189 217 2,900  Descending FlightAware ADS-B
Mon 02:15:57 AM 52.5853 4.7836 220° Southwest 171 197 3,000 154 Climbing FlightAware ADS-B
Mon 02:16:21 AM 52.5683 4.7669 198° South 173 199 3,000  Level FlightAware ADS-B
Mon 02:16:45 AM 52.5481 4.7603 187° South 183 211 3,000  Level FlightAware ADS-B
Mon 02:17:30 AM 52.5092 4.7563 183° South 175 201 3,000  Level FlightAware ADS-B
Mon 02:17:46 AM 52.4964 4.7552 183° South 175 201 3,000 -194 Level FlightAware ADS-B
Mon 02:18:01 AM 52.4846 4.7541 183° South 159 183 2,900 -824 Descending FlightAware ADS-B
Mon 02:18:37 AM 52.4540 4.7512 183° South 174 200 2,300 -900 Descending FlightAware UK
Mon 02:18:41 AM 52.4536 4.7513 183° South 163 188 2,300 -833 Level FlightAware ADS-B
Mon 02:19:13 AM 52.4299 4.7491 183° South 161 185 1,800 -766 Descending FlightAware ADS-B
Mon 02:19:28 AM 52.4186 4.7481 183° South 159 183 1,700 -732 Descending FlightAware ADS-B
Mon 02:19:54 AM 52.4007 4.7463 184° South 128 147 1,300 -923 Descending FlightAware ADS-B
Mon 02:22:00 AM 52.3086 4.7639 173° South  Level Estimated
Mon 02:23:00 AM 52.3086 4.7639 North  Level Estimated
Mon 02:24:00 AM 52.3086 4.7639 North  Level Estimated

Login

Don't have an account? Register now (free) for customized features, flight alerts, and more!